メインページ
METAR-TAF:

METAR-TAF

空港 :

ベルリン, ドイツ

ベルリン・テーゲル空港

緯度: 52-34N, 経度: 013-19E, 海抜: 37m

現時点の気象観測

当レポートは31分前の11:20(UTC)に作成
西/北西の風 12kt、西から北/北西の間で変化する
気温 15°C
湿度 59%
気圧 1019 hPa
視程10km以上
高度3000ftの千切れ雲あり
高度4800ftの千切れ雲あり

METAR: EDDT 241120Z 30012KT 270V340 9999 BKN030 BKN048 15/07 Q1019 TEMPO 29015G25KT

時間: 13:51 (11:51 UTC)

予報

当レポートは51分前の11:00(UTC)に作成
予報は24日の 12時(UTC)から 25日の 12時(UTC)まで有効
西/北西の風 12kt
視程10km以上
高度2500ftの雲は散在している
高度4000ftの千切れ雲あり
24日の 12時(UTC)から 24日の 17時(UTC)まで一時的に
西/北西の風 15kt、最大25ktの突風を伴う
24日の 17時(UTC)から 24日の 19時(UTC)まで徐々に
西/北西の風 7kt
確率 30% :
25日の 05時(UTC)から 25日の 08時(UTC)まで一時的に
高度1100ftの千切れ雲あり
25日の 06時(UTC)から 25日の 08時(UTC)まで徐々に
西の風 12kt

TAF: EDDT 241100Z 2412/2512 29012KT 9999 SCT025 BKN040 TEMPO 2412/2417 29015G25KT BECMG 2417/2419 29007KT PROB30 TEMPO 2505/2508 BKN011 BECMG 2506/2508 28012KT

4,000以上の空港の気象観測と天気予報(METAR報とTAF報)

利用可能な観測所は地図上に黄色い丸と赤い丸で示す。

丸の上にカーソルを重ねると観測所名を参照できる。

次にクリックすると気象観測と天気予報を参照できる。

マップの切り替え:黒色「×」印の緑ボタンをクリックして拡大、「-」印の緑ボタンをクリックして縮小、緑色の三角印をクリックして隣りの地図に切り替え


METAR-TAF: